Kezdőlap
METAR-TAF:

METAR-TAF

Repülőterek :

Winona Municipal Airport (Max Conrad Field)

Winona, Minnesota, Amerikai Egyesült Államok

földrajzi szélesség: 44-05N, földrajzi hosszúság: 091-42W, magasság: 200 m

Jelenlegi meteorológiai megfigyelések

A jelentés 33 perccel ezelõtt készült, 20:35 UTC
Dél-délkeleti szél 10 kt
Hőmérséklet 17°C
Páratartalom 94%
Légköri nyomás 1012 hPa
Látótávolság: 11.3 km
Szórványos felhőzet 3000 lábon
Szakadozott felhőzet 4800 lábon
Borult 5000 lábon
esõ

METAR: KONA 122035Z AUTO 15010KT 7SM RA SCT030 BKN048 OVC050 17/16 A2987 RMK AO2 P0012

Idő: 16:08 (21:08 UTC)


TAF: hiányzik

Meteorológiai megfigyelések és előrejelzések több, mint 4000 repülőtéren (METAR és TAF jelentéseket).

A térképen piros és sárga pontok jelzik az elérhető meteorológiai állomásokat.

Mozgassa az egeret a pont fölött, hogy megjelenjen az állomás neve.

Azután kattintson az időjárási megfigyelések és előrejelzések megtekintéséhez.

A térkép megváltoztatása: kattintson a fekete keresztel jelölt zöld gombra ráközelítéshez, a vonallal jelölt zöld gombra távolításhoz, vagy a zöld nyilakra a szomszédos térképek eléréséhez.


METAR-TAF: